Aviation Digital Data Service (ADDS)

Output produced by TAFs form (1018 UTC 22 November 2014)
found at http://aviationweather.gov/adds/tafs/
 
KLVS 220525Z 2206/2306 VRB05KT P6SM SCT200 
     FM221700 25012KT P6SM FEW200 
     FM222100 26015G25KT P6SM FEW200 
     FM230400 27018G29KT P6SM FEW200